Time,TemperatureF,DewpointF,PressureIn,WindDirection,WindDirectionDegrees,WindSpeedMPH,WindSpeedGustMPH,Humidity,HourlyPrecipIn,Conditions,Clouds,dailyrainin,SoftwareType,DateUTC
2013-01-09 00:00:00,72.0,66.3,30.20,North,0,0.0,0.0,82,0.00,,,0.00,WUHU216HW,2013-01-09 05:00:00,
2013-01-09 00:02:00,72.0,66.3,30.20,North,0,0.0,0.0,82,0.00,,,0.00,WUHU216HW,2013-01-09 05:02:00,
2013-01-09 00:07:00,72.0,66.3,30.20,North,0,0.0,0.0,82,0.00,,,0.00,WUHU216HW,2013-01-09 05:07:00,
2013-01-09 00:30:00,71.8,66.3,30.20,North,0,0.0,0.0,83,0.00,,,0.00,WUHU216HW,2013-01-09 05:30:00,
2013-01-09 00:35:00,71.8,66.3,30.20,North,0,0.0,0.0,83,0.00,,,0.00,WUHU216HW,2013-01-09 05:35:00,
2013-01-09 01:00:00,71.6,66.5,30.20,SSE,158,0.0,0.0,84,0.00,,,0.00,WUHU216HW,2013-01-09 06:00:00,
2013-01-09 01:05:00,71.6,66.5,30.20,SSE,158,0.0,0.0,84,0.00,,,0.00,WUHU216HW,2013-01-09 06:05:00,
2013-01-09 01:30:00,71.6,66.5,30.21,East,90,0.0,0.0,84,0.00,,,0.00,WUHU216HW,2013-01-09 06:30:00,
2013-01-09 01:35:00,71.6,66.5,30.21,East,90,0.0,0.0,84,0.00,,,0.00,WUHU216HW,2013-01-09 06:35:00,
2013-01-09 02:00:00,71.6,66.9,30.21,East,90,0.0,0.0,85,0.00,,,0.00,WUHU216HW,2013-01-09 07:00:00,
2013-01-09 02:05:00,71.6,66.9,30.21,East,90,0.0,0.0,85,0.00,,,0.00,WUHU216HW,2013-01-09 07:05:00,
2013-01-09 02:30:00,71.1,66.3,30.20,West,270,0.0,0.0,85,0.00,,,0.00,WUHU216HW,2013-01-09 07:30:00,
2013-01-09 02:35:00,71.1,66.3,30.20,West,270,0.0,0.0,85,0.00,,,0.00,WUHU216HW,2013-01-09 07:35:00,
2013-01-09 03:00:00,70.6,66.2,30.20,North,0,0.0,0.0,86,0.00,,,0.00,WUHU216HW,2013-01-09 08:00:00,
2013-01-09 03:05:00,70.6,66.2,30.20,North,0,0.0,0.0,86,0.00,,,0.00,WUHU216HW,2013-01-09 08:05:00,
2013-01-09 03:30:00,70.2,65.8,30.20,North,0,0.0,0.0,86,0.00,,,0.00,WUHU216HW,2013-01-09 08:30:00,
2013-01-09 03:35:00,70.2,65.8,30.20,North,0,0.0,0.0,86,0.00,,,0.00,WUHU216HW,2013-01-09 08:35:00,
2013-01-09 04:00:00,69.8,65.8,30.20,North,0,0.0,0.0,87,0.00,,,0.00,WUHU216HW,2013-01-09 09:00:00,
2013-01-09 04:05:00,69.8,65.8,30.20,North,0,0.0,0.0,87,0.00,,,0.00,WUHU216HW,2013-01-09 09:05:00,
2013-01-09 04:30:00,69.5,65.7,30.20,SE,135,0.0,0.0,88,0.00,,,0.00,WUHU216HW,2013-01-09 09:30:00,
2013-01-09 04:35:00,69.5,65.7,30.20,SE,135,0.0,0.0,88,0.00,,,0.00,WUHU216HW,2013-01-09 09:35:00,
2013-01-09 05:00:00,69.3,65.6,30.19,NE,45,0.0,0.0,88,0.00,,,0.00,WUHU216HW,2013-01-09 10:00:00,
2013-01-09 05:05:00,69.3,65.6,30.19,NE,45,0.0,0.0,88,0.00,,,0.00,WUHU216HW,2013-01-09 10:05:00,
2013-01-09 05:30:00,69.1,65.7,30.20,NE,45,0.0,0.0,89,0.00,,,0.00,WUHU216HW,2013-01-09 10:30:00,
2013-01-09 05:35:00,69.1,65.7,30.20,NE,45,0.0,0.0,89,0.00,,,0.00,WUHU216HW,2013-01-09 10:35:00,
2013-01-09 06:00:00,69.3,66.2,30.21,North,0,0.0,0.0,90,0.00,,,0.00,WUHU216HW,2013-01-09 11:00:00,
2013-01-09 06:05:00,69.3,66.2,30.21,North,0,0.0,0.0,90,0.00,,,0.00,WUHU216HW,2013-01-09 11:05:00,
2013-01-09 06:30:00,69.7,66.6,30.22,North,0,0.0,0.0,90,0.00,,,0.00,WUHU216HW,2013-01-09 11:30:00,
2013-01-09 06:35:00,69.7,66.6,30.22,North,0,0.0,0.0,90,0.00,,,0.00,WUHU216HW,2013-01-09 11:35:00,
2013-01-09 07:00:00,69.8,67.1,30.23,SE,135,0.0,0.0,91,0.00,,,0.00,WUHU216HW,2013-01-09 12:00:00,
2013-01-09 07:05:00,69.8,67.1,30.23,SE,135,0.0,0.0,91,0.00,,,0.00,WUHU216HW,2013-01-09 12:05:00,
2013-01-09 07:30:00,69.7,66.9,30.23,NE,45,0.2,0.2,91,0.00,,,0.00,WUHU216HW,2013-01-09 12:30:00,
2013-01-09 07:35:00,69.7,66.9,30.23,NE,45,0.2,0.2,91,0.00,,,0.00,WUHU216HW,2013-01-09 12:35:00,
2013-01-09 08:00:00,69.8,67.1,30.25,SSW,203,0.0,0.0,91,0.00,,,0.00,WUHU216HW,2013-01-09 13:00:00,
2013-01-09 08:05:00,69.8,67.1,30.25,SSW,203,0.0,0.0,91,0.00,,,0.00,WUHU216HW,2013-01-09 13:05:00,
2013-01-09 08:30:00,70.6,67.8,30.26,ESE,113,0.2,0.2,91,0.00,,,0.00,WUHU216HW,2013-01-09 13:30:00,
2013-01-09 08:35:00,70.6,67.8,30.26,ESE,113,0.2,0.2,91,0.00,,,0.00,WUHU216HW,2013-01-09 13:35:00,
2013-01-09 09:00:00,71.5,68.4,30.28,East,90,1.1,1.1,90,0.00,,,0.00,WUHU216HW,2013-01-09 14:00:00,
2013-01-09 09:05:00,71.5,68.4,30.28,East,90,1.1,1.1,90,0.00,,,0.00,WUHU216HW,2013-01-09 14:05:00,
2013-01-09 09:30:00,73.1,69.7,30.29,NE,45,0.2,0.2,89,0.00,,,0.00,WUHU216HW,2013-01-09 14:30:00,
2013-01-09 09:35:00,73.1,69.7,30.29,NE,45,0.2,0.2,89,0.00,,,0.00,WUHU216HW,2013-01-09 14:35:00,
2013-01-09 10:00:00,74.9,70.8,30.30,ESE,113,1.1,1.1,87,0.00,,,0.00,WUHU216HW,2013-01-09 15:00:00,
2013-01-09 10:05:00,74.9,70.8,30.30,ESE,113,1.1,1.1,87,0.00,,,0.00,WUHU216HW,2013-01-09 15:05:00,
2013-01-09 10:30:00,76.5,71.6,30.30,ESE,113,1.1,1.1,85,0.00,,,0.00,WUHU216HW,2013-01-09 15:30:00,
2013-01-09 10:35:00,76.5,71.6,30.30,ESE,113,1.1,1.1,85,0.00,,,0.00,WUHU216HW,2013-01-09 15:35:00,
2013-01-09 11:00:00,77.8,71.1,30.29,ESE,113,2.9,2.9,80,0.00,,,0.00,WUHU216HW,2013-01-09 16:00:00,
2013-01-09 11:05:00,77.8,71.1,30.29,ESE,113,2.9,2.9,80,0.00,,,0.00,WUHU216HW,2013-01-09 16:05:00,
2013-01-09 11:30:00,80.3,71.3,30.29,ENE,68,1.6,1.6,74,0.00,,,0.00,WUHU216HW,2013-01-09 16:30:00,
2013-01-09 11:35:00,80.3,71.3,30.29,ENE,68,1.6,1.6,74,0.00,,,0.00,WUHU216HW,2013-01-09 16:35:00,
2013-01-09 11:59:00,82.3,71.5,30.28,ESE,113,2.2,2.2,70,0.00,,,0.00,WUHU216HW,2013-01-09 16:59:00,
2013-01-09 12:00:00,82.3,71.5,30.28,ESE,113,2.2,2.2,70,0.00,,,0.00,WUHU216HW,2013-01-09 17:00:00,
2013-01-09 12:05:00,82.3,71.5,30.28,ESE,113,2.2,2.2,70,0.00,,,0.00,WUHU216HW,2013-01-09 17:05:00,
2013-01-09 12:30:00,82.3,70.6,30.26,ESE,113,1.8,1.8,68,0.00,,,0.00,WUHU216HW,2013-01-09 17:30:00,
2013-01-09 12:35:00,82.3,70.6,30.26,ESE,113,1.8,1.8,68,0.00,,,0.00,WUHU216HW,2013-01-09 17:35:00,
2013-01-09 12:59:00,83.3,70.3,30.25,ESE,113,1.6,1.6,65,0.00,,,0.00,WUHU216HW,2013-01-09 17:59:00,
2013-01-09 13:00:00,83.3,70.3,30.25,ESE,113,1.6,1.6,65,0.00,,,0.00,WUHU216HW,2013-01-09 18:00:00,
2013-01-09 13:05:00,83.3,70.3,30.25,ESE,113,1.6,1.6,65,0.00,,,0.00,WUHU216HW,2013-01-09 18:05:00,
2013-01-09 13:30:00,84.2,70.3,30.24,SE,135,1.1,1.1,63,0.00,,,0.00,WUHU216HW,2013-01-09 18:30:00,
2013-01-09 13:35:00,84.2,70.3,30.24,SE,135,1.1,1.1,63,0.00,,,0.00,WUHU216HW,2013-01-09 18:35:00,
2013-01-09 13:59:00,84.6,69.8,30.23,SSE,158,2.7,2.7,61,0.00,,,0.00,WUHU216HW,2013-01-09 18:59:00,
2013-01-09 14:00:00,84.6,69.8,30.23,SSE,158,2.7,2.7,61,0.00,,,0.00,WUHU216HW,2013-01-09 19:00:00,
2013-01-09 14:01:00,84.6,69.8,30.23,SSE,158,2.7,2.7,61,0.00,,,0.00,WUHU216HW,2013-01-09 19:01:00,
2013-01-09 14:06:00,84.6,69.8,30.23,SSE,158,2.7,2.7,61,0.00,,,0.00,WUHU216HW,2013-01-09 19:06:00,
2013-01-09 14:30:00,84.6,69.8,30.23,SE,135,1.6,1.6,61,0.00,,,0.00,WUHU216HW,2013-01-09 19:30:00,
2013-01-09 14:35:00,84.6,69.8,30.23,SE,135,1.6,1.6,61,0.00,,,0.00,WUHU216HW,2013-01-09 19:35:00,
2013-01-09 14:59:00,84.1,69.2,30.22,East,90,0.4,0.4,61,0.00,,,0.00,WUHU216HW,2013-01-09 19:59:00,
2013-01-09 15:00:00,84.1,69.2,30.22,East,90,0.4,0.4,61,0.00,,,0.00,WUHU216HW,2013-01-09 20:00:00,
2013-01-09 15:05:00,84.1,69.2,30.22,East,90,0.4,0.4,61,0.00,,,0.00,WUHU216HW,2013-01-09 20:05:00,
2013-01-09 15:30:00,83.5,68.7,30.22,SSW,203,1.1,1.1,61,0.00,,,0.00,WUHU216HW,2013-01-09 20:30:00,
2013-01-09 15:35:00,83.5,68.7,30.22,SSW,203,1.1,1.1,61,0.00,,,0.00,WUHU216HW,2013-01-09 20:35:00,
2013-01-09 15:59:00,83.5,68.7,30.22,ESE,113,0.0,0.0,61,0.00,,,0.00,WUHU216HW,2013-01-09 20:59:00,
2013-01-09 16:00:00,83.5,68.7,30.22,ESE,113,0.0,0.0,61,0.00,,,0.00,WUHU216HW,2013-01-09 21:00:00,
2013-01-09 16:05:00,83.5,68.7,30.22,ESE,113,0.0,0.0,61,0.00,,,0.00,WUHU216HW,2013-01-09 21:05:00,
2013-01-09 16:30:00,82.8,68.0,30.23,East,90,0.0,0.0,61,0.00,,,0.00,WUHU216HW,2013-01-09 21:30:00,
2013-01-09 16:35:00,82.8,68.0,30.23,East,90,0.0,0.0,61,0.00,,,0.00,WUHU216HW,2013-01-09 21:35:00,
2013-01-09 16:59:00,82.1,67.2,30.23,East,90,0.7,0.7,61,0.00,,,0.00,WUHU216HW,2013-01-09 21:59:00,
2013-01-09 17:00:00,82.1,67.2,30.23,East,90,0.7,0.7,61,0.00,,,0.00,WUHU216HW,2013-01-09 22:00:00,
2013-01-09 17:05:00,82.1,67.2,30.23,East,90,0.7,0.7,61,0.00,,,0.00,WUHU216HW,2013-01-09 22:05:00,
2013-01-09 17:30:00,81.2,66.9,30.22,East,90,0.2,0.2,62,0.00,,,0.00,WUHU216HW,2013-01-09 22:30:00,
2013-01-09 17:35:00,81.2,66.9,30.22,East,90,0.2,0.2,62,0.00,,,0.00,WUHU216HW,2013-01-09 22:35:00,
2013-01-09 18:00:00,79.7,66.5,30.23,North,0,0.0,0.0,64,0.00,,,0.00,WUHU216HW,2013-01-09 23:00:00,
2013-01-09 18:05:00,79.7,66.5,30.23,North,0,0.0,0.0,64,0.00,,,0.00,WUHU216HW,2013-01-09 23:05:00,
2013-01-09 18:30:00,78.5,65.7,30.24,NNW,338,0.0,0.0,65,0.00,,,0.00,WUHU216HW,2013-01-09 23:30:00,
2013-01-09 18:35:00,78.5,65.7,30.24,NNW,338,0.0,0.0,65,0.00,,,0.00,WUHU216HW,2013-01-09 23:35:00,
2013-01-09 19:00:00,77.4,65.6,30.25,ESE,113,0.0,0.0,67,0.00,,,0.00,WUHU216HW,2013-01-10 00:00:00,
2013-01-09 19:05:00,77.4,65.6,30.25,ESE,113,0.0,0.0,67,0.00,,,0.00,WUHU216HW,2013-01-10 00:05:00,
2013-01-09 19:30:00,76.3,65.0,30.26,ESE,113,0.0,0.0,68,0.00,,,0.00,WUHU216HW,2013-01-10 00:30:00,
2013-01-09 19:35:00,76.3,65.0,30.26,ESE,113,0.0,0.0,68,0.00,,,0.00,WUHU216HW,2013-01-10 00:35:00,
2013-01-09 20:00:00,75.6,65.2,30.26,NE,45,0.0,0.0,70,0.00,,,0.00,WUHU216HW,2013-01-10 01:00:00,
2013-01-09 20:05:00,75.6,65.2,30.26,NE,45,0.0,0.0,70,0.00,,,0.00,WUHU216HW,2013-01-10 01:05:00,
2013-01-09 20:30:00,75.2,65.2,30.26,NNW,338,0.2,0.2,71,0.00,,,0.00,WUHU216HW,2013-01-10 01:30:00,
2013-01-09 20:35:00,75.2,65.2,30.26,NNW,338,0.2,0.2,71,0.00,,,0.00,WUHU216HW,2013-01-10 01:35:00,
2013-01-09 21:00:00,75.2,65.6,30.28,SE,135,0.0,0.0,72,0.00,,,0.00,WUHU216HW,2013-01-10 02:00:00,
2013-01-09 21:05:00,75.2,65.6,30.28,SE,135,0.0,0.0,72,0.00,,,0.00,WUHU216HW,2013-01-10 02:05:00,
2013-01-09 21:30:00,75.2,66.8,30.28,ESE,113,0.9,0.9,75,0.00,,,0.00,WUHU216HW,2013-01-10 02:30:00,
2013-01-09 21:35:00,75.2,66.8,30.28,ESE,113,0.9,0.9,75,0.00,,,0.00,WUHU216HW,2013-01-10 02:35:00,
2013-01-09 22:00:00,74.7,67.1,30.30,East,90,1.1,1.1,77,0.00,,,0.00,WUHU216HW,2013-01-10 03:00:00,
2013-01-09 22:05:00,74.7,67.1,30.30,East,90,1.1,1.1,77,0.00,,,0.00,WUHU216HW,2013-01-10 03:05:00,
2013-01-09 22:30:00,74.2,67.3,30.31,ENE,68,0.0,0.0,79,0.00,,,0.00,WUHU216HW,2013-01-10 03:30:00,
2013-01-09 22:35:00,74.2,67.3,30.31,ENE,68,0.0,0.0,79,0.00,,,0.00,WUHU216HW,2013-01-10 03:35:00,
2013-01-09 22:59:00,73.4,67.3,30.31,East,90,0.4,0.4,81,0.00,,,0.00,WUHU216HW,2013-01-10 03:59:00,
2013-01-09 23:00:00,73.4,67.3,30.31,East,90,0.4,0.4,81,0.00,,,0.00,WUHU216HW,2013-01-10 04:00:00,
2013-01-09 23:05:00,73.4,67.3,30.31,East,90,0.4,0.4,81,0.00,,,0.00,WUHU216HW,2013-01-10 04:05:00,
2013-01-09 23:30:00,72.9,67.4,30.31,ENE,68,1.1,1.1,83,0.00,,,0.00,WUHU216HW,2013-01-10 04:30:00,
2013-01-09 23:35:00,72.9,67.4,30.31,ENE,68,1.1,1.1,83,0.00,,,0.00,WUHU216HW,2013-01-10 04:35:00,
2013-01-09 23:59:00,72.5,67.1,30.31,East,90,0.0,0.0,83,0.00,,,0.00,WUHU216HW,2013-01-10 04:59:00,